• LFSB

    METAR de LFSB (émis le 2023/02/08 00:30 UTC):
    LFSB 080030Z AUTO 29002KT 9000 NSC M04/M06 Q1035 NOSIG

    TAF de LFSB (émis le 2023/02/07 18:37 UTC):
    LFSB 071700Z 0718/0818 35005KT CAVOK
  • LFSX

    METAR de LFSX (émis le 2023/02/08 00:30 UTC):
    LFSX 080030Z AUTO 07003KT 050V110 9000 NSC M04/M04 Q1034

    TAF de LFSX (émis le 2023/02/07 22:36 UTC):
    AMD LFSX 072229Z 0722/0821 12005KT CAVOK
  • LFSD

    METAR de LFSD (émis le 2023/02/08 00:30 UTC):
    LFSD 080030Z AUTO 35007KT CAVOK M01/M04 Q1033

    TAF de LFSD (émis le 2015/06/01 00:11 UTC):
    LFSD 010600Z 0100/0124 CNL
  • LFGJ

    METAR de LFGJ (émis le 2023/02/08 00:30 UTC):
    LFGJ 080030Z AUTO 03007KT 9000 NSC M00/M04 Q1032

    TAF COURT de LFGJ
    (émis le 2023/02/07 17:51 UTC):
    TAF TAF LFGJ 071759Z 0717/0724 CNL
  • LFJL

    METAR de LFJL (émis le 2023/02/08 00:30 UTC):
    LFJL 080030Z AUTO 06009KT CAVOK M02/M07 Q1036 NOSIG

    TAF de LFJL (émis le 2023/02/07 18:37 UTC):
    LFJL 071700Z 0718/0818 07008KT CAVOK
  • LFST

    METAR de LFST (émis le 2023/02/08 00:30 UTC):
    LFST 080030Z AUTO 35005KT CAVOK M02/M05 Q1037 NOSIG

    TAF de LFST (émis le 2023/02/07 18:37 UTC):
    LFST 071700Z 0718/0818 02006KT CAVOK